createdAt,value
2019-05-29T00:02:15.980Z,71.72
2019-05-29T00:04:47.837Z,71.16
2019-05-29T00:07:19.711Z,71.66
2019-05-29T00:09:51.598Z,71.72
2019-05-29T00:12:23.516Z,71.70
2019-05-29T00:14:55.445Z,71.46
2019-05-29T00:17:27.372Z,71.78
2019-05-29T00:19:59.236Z,71.83
2019-05-29T00:22:31.094Z,72.43
2019-05-29T00:25:03.051Z,71.55
2019-05-29T00:27:35.543Z,70.67
2019-05-29T00:30:08.825Z,70.18
2019-05-29T00:32:40.776Z,68.15
2019-05-29T00:35:12.762Z,68.71
2019-05-29T00:37:44.617Z,69.02
2019-05-29T00:40:17.159Z,67.73
2019-05-29T00:42:49.160Z,67.75
2019-05-29T00:45:21.341Z,66.40
2019-05-29T00:47:53.194Z,66.56
2019-05-29T00:50:25.056Z,67.67
2019-05-29T00:52:56.862Z,67.54
2019-05-29T00:55:28.720Z,67.02
2019-05-29T00:58:00.578Z,66.53
2019-05-29T01:00:32.520Z,66.26
2019-05-29T01:03:04.606Z,66.71
2019-05-29T01:05:36.529Z,66.50
2019-05-29T01:08:08.317Z,67.46
2019-05-29T01:10:40.176Z,67.67
2019-05-29T01:13:13.380Z,66.06
2019-05-29T01:15:45.157Z,66.58
2019-05-29T01:18:17.821Z,66.69
2019-05-29T01:20:49.789Z,65.11
2019-05-29T01:23:22.927Z,65.57
2019-05-29T01:25:54.746Z,65.45
2019-05-29T01:28:26.546Z,66.31
2019-05-29T01:30:58.358Z,66.28
2019-05-29T01:33:30.228Z,65.83
2019-05-29T01:36:02.010Z,66.73
2019-05-29T01:38:34.189Z,66.50
2019-05-29T01:41:06.237Z,66.95
2019-05-29T01:43:38.098Z,66.86
2019-05-29T01:46:09.952Z,66.88
2019-05-29T01:48:43.167Z,66.58
2019-05-29T01:51:15.453Z,66.69
2019-05-29T01:53:47.381Z,67.25
2019-05-29T01:56:19.796Z,66.89
2019-05-29T01:58:51.707Z,67.35
2019-05-29T02:01:24.048Z,67.56
2019-05-29T02:03:55.996Z,67.28
2019-05-29T02:06:28.230Z,67.21
2019-05-29T02:09:00.218Z,67.13
2019-05-29T02:11:32.354Z,68.09
2019-05-29T02:14:04.313Z,67.28
2019-05-29T02:16:36.240Z,67.16
2019-05-29T02:19:09.263Z,66.69
2019-05-29T02:21:41.145Z,67.17
2019-05-29T02:24:13.006Z,66.92
2019-05-29T02:26:44.788Z,66.76
2019-05-29T02:29:16.634Z,67.27
2019-05-29T02:31:48.447Z,67.21
2019-05-29T02:34:22.543Z,68.13
2019-05-29T02:36:54.761Z,67.97
2019-05-29T02:39:27.231Z,69.05
2019-05-29T02:42:00.173Z,68.12
2019-05-29T02:44:31.959Z,68.15
2019-05-29T02:47:03.748Z,67.32
2019-05-29T02:49:35.593Z,67.44
2019-05-29T02:52:07.440Z,67.78
2019-05-29T02:54:39.306Z,67.79
2019-05-29T02:57:11.293Z,68.17
2019-05-29T02:59:43.101Z,68.27
2019-05-29T03:02:14.886Z,69.13
2019-05-29T03:04:46.748Z,68.91
2019-05-29T03:07:18.703Z,69.01
2019-05-29T03:09:50.480Z,68.89
2019-05-29T03:12:22.877Z,68.78
2019-05-29T03:14:54.894Z,69.04
2019-05-29T03:17:27.901Z,69.65
2019-05-29T03:20:00.153Z,69.69
2019-05-29T03:22:33.743Z,69.36
2019-05-29T03:25:06.050Z,69.37
2019-05-29T03:27:38.505Z,69.76
2019-05-29T03:30:10.490Z,69.51
2019-05-29T03:32:47.718Z,69.23
2019-05-29T03:35:15.910Z,69.63
2019-05-29T03:37:47.702Z,69.46
2019-05-29T03:40:19.631Z,68.40
2019-05-29T03:42:51.870Z,69.73
2019-05-29T03:45:23.651Z,68.95
2019-05-29T03:47:55.416Z,68.27
2019-05-29T03:50:29.383Z,67.88
2019-05-29T03:53:00.790Z,68.32
2019-05-29T03:55:33.721Z,67.87
2019-05-29T03:58:06.570Z,68.11
2019-05-29T04:00:45.653Z,67.51
2019-05-29T04:03:11.997Z,67.38
2019-05-29T04:05:43.842Z,67.31
2019-05-29T04:08:15.638Z,67.38
2019-05-29T04:10:47.517Z,68.46
2019-05-29T04:13:19.375Z,67.47
2019-05-29T04:15:51.234Z,67.04
2019-05-29T04:18:24.345Z,66.87
2019-05-29T04:20:57.006Z,66.87
2019-05-29T04:23:32.259Z,66.61
2019-05-29T04:26:06.051Z,66.50
2019-05-29T04:28:38.978Z,66.14
2019-05-29T04:31:10.981Z,67.28
2019-05-29T04:33:42.795Z,66.06
2019-05-29T04:36:14.645Z,66.07
2019-05-29T04:38:46.440Z,67.00
2019-05-29T04:41:18.292Z,67.31
2019-05-29T04:43:50.102Z,66.21
2019-05-29T04:46:21.878Z,66.01
2019-05-29T04:48:53.671Z,66.76
2019-05-29T04:51:26.532Z,65.44
2019-05-29T04:53:58.320Z,66.11
2019-05-29T04:56:30.740Z,65.46
2019-05-29T04:59:02.562Z,66.47
2019-05-29T05:01:35.070Z,65.84
2019-05-29T05:04:07.268Z,64.83
2019-05-29T05:06:39.464Z,64.34
2019-05-29T05:09:11.397Z,64.25
2019-05-29T05:11:43.202Z,66.10
2019-05-29T05:14:14.984Z,64.45
2019-05-29T05:16:47.071Z,65.07
2019-05-29T05:19:19.496Z,64.89
2019-05-29T05:21:52.738Z,65.77
2019-05-29T05:24:24.528Z,63.81
2019-05-29T05:26:56.543Z,64.22
2019-05-29T05:29:28.579Z,64.24
2019-05-29T05:32:01.156Z,63.03
2019-05-29T05:34:33.187Z,64.16
2019-05-29T05:37:05.055Z,63.65
2019-05-29T05:39:37.356Z,63.98
2019-05-29T05:42:09.520Z,62.11
2019-05-29T05:44:41.422Z,62.56
2019-05-29T05:47:13.328Z,62.87
2019-05-29T05:49:45.177Z,61.62
2019-05-29T05:52:16.970Z,61.75
2019-05-29T05:54:48.772Z,62.57
2019-05-29T05:57:20.562Z,62.19
2019-05-29T05:59:52.429Z,60.58
2019-05-29T06:02:24.413Z,60.67
2019-05-29T06:04:56.196Z,61.05
2019-05-29T06:07:28.135Z,61.71
2019-05-29T06:09:59.948Z,61.61
2019-05-29T06:12:32.263Z,61.92
2019-05-29T06:15:04.357Z,59.69
2019-05-29T06:17:36.621Z,59.59
2019-05-29T06:20:08.652Z,60.24
2019-05-29T06:22:41.364Z,59.58
2019-05-29T06:25:13.189Z,59.92
2019-05-29T06:27:45.051Z,58.61
2019-05-29T06:30:17.060Z,59.18
2019-05-29T06:32:49.030Z,57.72
2019-05-29T06:35:20.839Z,57.88
2019-05-29T06:37:52.691Z,56.31
2019-05-29T06:40:40.180Z,57.79
2019-05-29T06:43:22.119Z,57.73
2019-05-29T06:45:54.301Z,55.67
2019-05-29T06:48:42.652Z,55.20
2019-05-29T06:51:01.632Z,52.87
2019-05-29T06:53:33.572Z,51.91
2019-05-29T06:56:05.640Z,53.11
2019-05-29T06:58:40.280Z,53.29
2019-05-29T07:01:12.279Z,52.51
2019-05-29T07:03:44.211Z,50.09
2019-05-29T07:06:16.016Z,48.38
2019-05-29T07:08:50.067Z,47.79
2019-05-29T07:11:22.607Z,50.26
2019-05-29T07:13:54.467Z,49.52
2019-05-29T07:16:43.276Z,49.36
2019-05-29T07:21:33.561Z,48.82
2019-05-29T07:24:05.920Z,48.69
2019-05-29T07:26:41.073Z,50.65
2019-05-29T07:29:14.561Z,50.27
2019-05-29T07:31:47.493Z,49.20
2019-05-29T07:34:23.401Z,51.21
2019-05-29T07:36:55.517Z,51.23
2019-05-29T07:39:27.548Z,48.47
2019-05-29T07:41:59.597Z,49.21
2019-05-29T07:44:31.453Z,48.60
2019-05-29T07:47:03.665Z,49.08
2019-05-29T07:49:39.859Z,48.80
2019-05-29T07:52:10.801Z,48.21
2019-05-29T07:54:43.770Z,48.08
2019-05-29T07:57:15.865Z,49.20
2019-05-29T07:59:48.793Z,47.16
2019-05-29T08:02:20.694Z,48.03
2019-05-29T08:04:52.558Z,48.05
2019-05-29T08:07:24.436Z,48.44
2019-05-29T08:09:56.304Z,47.56
2019-05-29T08:12:28.301Z,46.69
2019-05-29T08:15:00.207Z,46.69
2019-05-29T08:17:33.691Z,47.37
2019-05-29T08:20:08.229Z,48.27
2019-05-29T08:22:40.293Z,47.76
2019-05-29T08:25:12.239Z,48.17
2019-05-29T08:27:44.712Z,48.17
2019-05-29T08:30:17.112Z,47.91
2019-05-29T08:32:51.154Z,47.86
2019-05-29T08:35:24.689Z,46.48
2019-05-29T08:37:56.591Z,47.85
2019-05-29T08:40:28.629Z,47.56
2019-05-29T08:43:00.483Z,48.12
2019-05-29T08:45:32.336Z,47.43
2019-05-29T08:48:04.180Z,48.50
2019-05-29T08:50:36.164Z,48.29
2019-05-29T08:53:08.098Z,47.04
2019-05-29T08:55:40.027Z,46.35
2019-05-29T08:58:11.874Z,46.35
2019-05-29T09:00:48.118Z,47.09
2019-05-29T09:03:17.478Z,47.55
2019-05-29T09:06:04.999Z,46.54
2019-05-29T09:08:22.808Z,46.78
2019-05-29T09:10:54.989Z,47.07
2019-05-29T09:13:26.883Z,47.59
2019-05-29T09:15:58.742Z,47.57
2019-05-29T09:18:30.587Z,44.05
2019-05-29T09:21:03.939Z,44.10
2019-05-29T09:23:37.824Z,43.63
2019-05-29T09:26:16.029Z,44.81
2019-05-29T09:28:44.347Z,42.11
2019-05-29T09:31:17.363Z,43.58
2019-05-29T09:33:49.954Z,47.60
2019-05-29T09:36:22.735Z,43.81
2019-05-29T09:38:55.471Z,43.98
2019-05-29T09:41:27.398Z,44.20
2019-05-29T09:44:00.355Z,44.61
2019-05-29T09:46:33.443Z,44.51
2019-05-29T09:49:05.388Z,43.53
2019-05-29T09:51:37.501Z,45.63
2019-05-29T09:54:09.534Z,43.79
2019-05-29T09:56:41.527Z,45.09
2019-05-29T09:59:13.379Z,41.54
2019-05-29T10:01:46.977Z,40.77
2019-05-29T10:04:19.341Z,41.76
2019-05-29T10:06:51.206Z,42.54
2019-05-29T10:09:24.660Z,43.99
2019-05-29T10:12:00.885Z,42.87
2019-05-29T10:14:30.795Z,40.69
2019-05-29T10:17:07.990Z,38.56
2019-05-29T10:19:37.230Z,38.57
2019-05-29T10:22:09.078Z,39.07
2019-05-29T10:24:42.726Z,39.13
2019-05-29T10:27:14.601Z,42.67
2019-05-29T10:29:49.639Z,43.97
2019-05-29T10:32:20.228Z,43.97
2019-05-29T10:34:52.648Z,45.12
2019-05-29T10:37:24.660Z,45.50
2019-05-29T10:39:56.429Z,43.45
2019-05-29T10:42:28.314Z,44.35
2019-05-29T10:45:00.223Z,44.57
2019-05-29T10:47:33.584Z,44.03
2019-05-29T10:50:05.949Z,44.48
2019-05-29T10:52:38.754Z,45.46
2019-05-29T10:55:10.791Z,45.21
2019-05-29T10:57:42.665Z,45.38
2019-05-29T11:00:15.412Z,43.44
2019-05-29T11:02:48.228Z,41.80
2019-05-29T11:05:21.153Z,44.04
2019-05-29T11:07:54.021Z,43.80
2019-05-29T11:10:26.241Z,45.31
2019-05-29T11:12:58.097Z,45.86
2019-05-29T11:15:30.042Z,45.60
2019-05-29T11:18:01.834Z,45.35
2019-05-29T11:20:33.962Z,46.28
2019-05-29T11:23:06.044Z,44.18
2019-05-29T11:25:37.892Z,43.54
2019-05-29T11:28:09.758Z,44.59
2019-05-29T11:30:41.582Z,43.57
2019-05-29T11:33:14.785Z,43.23
2019-05-29T11:35:57.763Z,42.34
2019-05-29T11:38:20.934Z,40.47
2019-05-29T11:41:19.400Z,41.84
2019-05-29T11:43:27.289Z,41.93
2019-05-29T11:45:59.620Z,42.50
2019-05-29T11:48:31.515Z,42.32
2019-05-29T11:51:03.542Z,42.13
2019-05-29T11:53:35.822Z,43.25
2019-05-29T11:56:07.640Z,42.98
2019-05-29T11:58:39.602Z,41.87
2019-05-29T12:01:11.443Z,42.16
2019-05-29T12:04:09.577Z,41.87
2019-05-29T12:06:16.842Z,40.07
2019-05-29T12:08:48.619Z,40.90
2019-05-29T12:11:20.417Z,40.08
2019-05-29T12:13:54.034Z,37.62
2019-05-29T12:16:25.828Z,39.22
2019-05-29T12:18:57.884Z,38.48
2019-05-29T12:21:29.649Z,39.18
2019-05-29T12:24:02.312Z,35.77
2019-05-29T12:26:34.243Z,37.78
2019-05-29T12:29:11.395Z,37.71
2019-05-29T12:31:39.930Z,38.68
2019-05-29T12:34:18.774Z,38.68
2019-05-29T12:36:45.392Z,39.52
2019-05-29T12:39:17.263Z,36.79
2019-05-29T12:41:49.219Z,36.28
2019-05-29T12:44:21.067Z,33.42
2019-05-29T12:46:53.491Z,34.08
2019-05-29T12:49:25.369Z,35.75
2019-05-29T12:51:57.622Z,35.39
2019-05-29T12:54:29.710Z,36.55
2019-05-29T12:57:02.360Z,38.11
2019-05-29T12:59:34.755Z,36.70
2019-05-29T13:02:07.345Z,35.85
2019-05-29T13:05:05.989Z,34.80
2019-05-29T13:07:12.806Z,35.26
2019-05-29T13:09:44.606Z,35.35
2019-05-29T13:12:16.484Z,35.58
2019-05-29T13:14:48.359Z,36.75
2019-05-29T13:17:21.394Z,36.90
2019-05-29T13:19:57.616Z,35.70
2019-05-29T13:22:27.145Z,36.62
2019-05-29T13:24:59.396Z,35.10
2019-05-29T13:27:31.456Z,33.81
2019-05-29T13:30:06.085Z,33.98
2019-05-29T13:32:37.120Z,34.42
2019-05-29T13:35:09.697Z,34.51
2019-05-29T13:37:41.624Z,34.23
2019-05-29T13:40:15.026Z,32.35
2019-05-29T13:42:47.481Z,33.23
2019-05-29T13:45:19.527Z,33.08
2019-05-29T13:47:51.394Z,33.84
2019-05-29T13:50:23.430Z,33.92
2019-05-29T13:52:57.131Z,34.64
2019-05-29T13:55:29.312Z,35.12
2019-05-29T13:58:01.633Z,36.17
2019-05-29T14:00:35.076Z,36.08
2019-05-29T14:03:09.222Z,35.99
2019-05-29T14:05:42.036Z,37.17
2019-05-29T14:08:16.177Z,38.16
2019-05-29T14:10:48.517Z,35.12
2019-05-29T14:13:20.367Z,32.43
2019-05-29T14:15:52.249Z,31.11
2019-05-29T14:18:24.115Z,31.18
2019-05-29T14:20:56.473Z,31.02
2019-05-29T14:23:28.365Z,30.18
2019-05-29T14:26:00.444Z,29.53
2019-05-29T14:28:32.283Z,29.25
2019-05-29T14:31:05.853Z,27.82
2019-05-29T14:33:37.894Z,27.71
2019-05-29T14:36:11.501Z,26.99
2019-05-29T14:38:44.787Z,26.59
2019-05-29T14:41:16.964Z,26.12
2019-05-29T14:43:48.773Z,24.98
2019-05-29T14:46:20.562Z,24.47
2019-05-29T14:48:54.139Z,24.05
2019-05-29T14:51:26.298Z,23.18
2019-05-29T14:53:58.148Z,23.32
2019-05-29T14:56:30.034Z,24.76
2019-05-29T14:59:03.218Z,26.18
2019-05-29T15:01:35.205Z,26.93
2019-05-29T15:04:07.630Z,25.88
2019-05-29T15:06:39.539Z,25.05
2019-05-29T15:09:11.760Z,26.11
2019-05-29T15:11:43.628Z,29.03
2019-05-29T15:14:15.513Z,27.90
2019-05-29T15:16:47.494Z,26.82
2019-05-29T15:19:19.343Z,26.61
2019-05-29T15:21:51.217Z,25.72
2019-05-29T15:24:23.035Z,26.58
2019-05-29T15:26:54.897Z,26.87
2019-05-29T15:29:26.778Z,26.46
2019-05-29T15:31:58.809Z,26.03
2019-05-29T15:34:30.696Z,24.84
2019-05-29T15:37:02.553Z,23.49
2019-05-29T15:39:34.527Z,21.38
2019-05-29T15:42:06.823Z,21.39
2019-05-29T15:44:38.720Z,22.46
2019-05-29T15:47:10.976Z,22.73
2019-05-29T15:49:42.846Z,23.15
2019-05-29T15:52:15.259Z,24.09
2019-05-29T15:54:48.184Z,25.03
2019-05-29T15:57:20.017Z,25.21
2019-05-29T15:59:51.825Z,25.44
2019-05-29T16:02:23.586Z,23.95
2019-05-29T16:04:55.448Z,25.11
2019-05-29T16:07:27.330Z,23.45
2019-05-29T16:09:59.115Z,21.84
2019-05-29T16:12:31.405Z,21.93
2019-05-29T16:15:04.052Z,20.96
2019-05-29T16:17:36.054Z,20.98
2019-05-29T16:20:10.304Z,22.12
2019-05-29T16:22:44.036Z,24.08
2019-05-29T16:25:19.314Z,25.63
2019-05-29T16:27:51.251Z,25.82
2019-05-29T16:30:23.503Z,26.60
2019-05-29T16:32:55.565Z,26.64
2019-05-29T16:35:28.156Z,28.50
2019-05-29T16:38:02.673Z,29.08
2019-05-29T16:40:35.183Z,30.19
2019-05-29T16:43:07.388Z,30.76
2019-05-29T16:45:39.230Z,31.96
2019-05-29T16:48:12.874Z,32.37
2019-05-29T16:50:44.949Z,32.78
2019-05-29T16:53:16.802Z,33.54
2019-05-29T16:55:53.691Z,32.98
2019-05-29T16:58:23.311Z,32.95
2019-05-29T17:00:55.195Z,33.37
2019-05-29T17:03:27.962Z,33.80
2019-05-29T17:05:59.749Z,34.06
2019-05-29T17:08:31.606Z,34.49
2019-05-29T17:11:05.045Z,35.26
2019-05-29T17:13:37.331Z,35.44
2019-05-29T17:16:09.438Z,36.03
2019-05-29T17:18:41.455Z,36.14
2019-05-29T17:21:14.396Z,36.06
2019-05-29T17:23:47.133Z,34.95
2019-05-29T17:26:19.366Z,36.04
2019-05-29T17:28:51.226Z,36.54
2019-05-29T17:31:23.008Z,36.57
2019-05-29T17:33:54.809Z,37.25
2019-05-29T17:36:28.810Z,36.36
2019-05-29T17:39:00.243Z,36.41
2019-05-29T17:41:32.143Z,36.88
2019-05-29T17:44:04.214Z,37.18
2019-05-29T17:46:36.063Z,36.47
2019-05-29T17:49:08.263Z,37.16
2019-05-29T17:51:40.298Z,37.49
2019-05-29T17:54:12.213Z,38.80
2019-05-29T17:56:44.067Z,38.32
2019-05-29T17:59:16.050Z,38.49
2019-05-29T18:01:47.912Z,38.47
2019-05-29T18:04:20.380Z,38.04
2019-05-29T18:06:52.311Z,38.37
2019-05-29T18:09:27.350Z,38.70
2019-05-29T18:11:57.747Z,38.71
2019-05-29T18:14:29.609Z,38.81
2019-05-29T18:17:01.475Z,39.34
2019-05-29T18:19:33.578Z,39.36
2019-05-29T18:22:05.368Z,40.37
2019-05-29T18:24:37.545Z,40.84
2019-05-29T18:27:09.508Z,40.92
2019-05-29T18:29:41.382Z,41.94
2019-05-29T18:32:13.234Z,41.36
2019-05-29T18:34:45.112Z,42.31
2019-05-29T18:37:16.968Z,42.92
2019-05-29T18:39:48.840Z,43.67
2019-05-29T18:42:20.736Z,44.50
2019-05-29T18:44:52.883Z,43.56
2019-05-29T18:47:25.189Z,45.11
2019-05-29T18:49:57.192Z,45.35
2019-05-29T18:52:30.335Z,42.55
2019-05-29T18:55:02.525Z,44.06
2019-05-29T18:57:34.870Z,45.78
2019-05-29T19:00:07.407Z,45.35
2019-05-29T19:02:49.743Z,45.09
2019-05-29T19:05:23.585Z,45.88
2019-05-29T19:07:58.729Z,48.17
2019-05-29T19:10:31.837Z,45.57
2019-05-29T19:13:04.257Z,46.02
2019-05-29T19:15:36.265Z,45.62
2019-05-29T19:18:09.505Z,46.42
2019-05-29T19:20:41.325Z,47.46
2019-05-29T19:23:14.209Z,47.64
2019-05-29T19:25:46.076Z,48.17
2019-05-29T19:28:17.941Z,49.14
2019-05-29T19:30:49.802Z,47.49
2019-05-29T19:33:21.668Z,47.85
2019-05-29T19:35:53.550Z,48.03
2019-05-29T19:38:25.666Z,48.30
2019-05-29T19:40:58.603Z,47.98
2019-05-29T19:43:30.488Z,49.15
2019-05-29T19:46:02.347Z,49.76
2019-05-29T19:48:35.286Z,47.95
2019-05-29T19:51:08.526Z,48.27
2019-05-29T19:53:40.427Z,48.71
2019-05-29T19:56:12.284Z,48.66
2019-05-29T19:58:44.176Z,47.61
2019-05-29T20:01:30.039Z,47.76
2019-05-29T20:03:49.617Z,46.73
2019-05-29T20:06:21.569Z,46.92
2019-05-29T20:08:53.440Z,46.49
2019-05-29T20:11:25.566Z,46.22
2019-05-29T20:13:57.437Z,45.04
2019-05-29T20:16:30.080Z,45.04
2019-05-29T20:19:02.093Z,45.53
2019-05-29T20:21:34.751Z,45.35
2019-05-29T20:24:07.041Z,45.76
2019-05-29T20:26:39.429Z,44.79
2019-05-29T20:29:11.320Z,45.20
2019-05-29T20:31:43.133Z,43.73
2019-05-29T20:34:14.994Z,43.73
2019-05-29T20:36:46.853Z,43.52
2019-05-29T20:39:19.734Z,43.56
2019-05-29T20:41:51.713Z,43.16
2019-05-29T20:44:23.564Z,43.15
2019-05-29T20:46:55.421Z,42.17
2019-05-29T20:49:27.271Z,43.13
2019-05-29T20:51:59.160Z,42.79
2019-05-29T20:54:31.565Z,42.34
2019-05-29T20:57:11.098Z,43.15
2019-05-29T20:59:43.874Z,42.68
2019-05-29T21:02:15.774Z,42.80
2019-05-29T21:04:47.662Z,42.51
2019-05-29T21:07:19.527Z,41.48
2019-05-29T21:09:51.330Z,41.62
2019-05-29T21:12:23.141Z,42.22
2019-05-29T21:14:54.975Z,41.95
2019-05-29T21:17:26.742Z,41.93
2019-05-29T21:19:58.550Z,41.59
2019-05-29T21:22:30.370Z,42.41
2019-05-29T21:25:08.432Z,41.31
2019-05-29T21:27:37.023Z,41.13
2019-05-29T21:30:09.154Z,40.62
2019-05-29T21:32:42.070Z,42.24
2019-05-29T21:35:14.008Z,41.56
2019-05-29T21:37:46.975Z,41.45
2019-05-29T21:40:18.879Z,40.91
2019-05-29T21:42:52.030Z,41.25
2019-05-29T21:45:23.830Z,41.49
2019-05-29T21:47:55.716Z,42.16
2019-05-29T21:50:27.509Z,41.43
2019-05-29T21:53:00.364Z,41.83
2019-05-29T21:55:32.316Z,41.82
2019-05-29T21:58:04.115Z,41.86
2019-05-29T22:00:42.390Z,41.93
2019-05-29T22:03:15.814Z,41.51
2019-05-29T22:05:48.879Z,41.13
2019-05-29T22:08:20.836Z,41.41
2019-05-29T22:10:53.453Z,40.92
2019-05-29T22:13:25.480Z,41.34
2019-05-29T22:15:57.430Z,42.00
2019-05-29T22:18:29.323Z,41.61
2019-05-29T22:21:01.687Z,41.52
2019-05-29T22:23:33.696Z,41.79
2019-05-29T22:26:05.553Z,41.52
2019-05-29T22:28:37.719Z,41.98
2019-05-29T22:31:09.553Z,41.73
2019-05-29T22:33:41.412Z,42.30
2019-05-29T22:36:13.284Z,42.27
2019-05-29T22:38:45.111Z,42.13
2019-05-29T22:41:16.835Z,42.93
2019-05-29T22:43:48.691Z,43.29
2019-05-29T22:46:20.673Z,43.53
2019-05-29T22:48:53.675Z,44.17
2019-05-29T22:51:25.702Z,43.81
2019-05-29T22:53:57.914Z,45.68
2019-05-29T22:56:29.937Z,45.48
2019-05-29T22:59:02.256Z,45.13
2019-05-29T23:01:34.190Z,46.52
2019-05-29T23:04:07.334Z,47.00
2019-05-29T23:06:39.224Z,47.09
2019-05-29T23:09:11.031Z,47.17
2019-05-29T23:11:42.923Z,48.31
2019-05-29T23:14:14.859Z,47.99
2019-05-29T23:16:46.694Z,48.46
2019-05-29T23:19:18.596Z,50.28
2019-05-29T23:21:50.484Z,50.64
2019-05-29T23:24:22.372Z,51.03
2019-05-29T23:26:54.961Z,51.43
2019-05-29T23:29:26.953Z,51.64
2019-05-29T23:31:58.965Z,52.36
2019-05-29T23:34:30.770Z,52.63
2019-05-29T23:37:03.356Z,52.89
2019-05-29T23:39:35.303Z,53.11
2019-05-29T23:42:07.285Z,51.61
2019-05-29T23:44:39.084Z,50.11
2019-05-29T23:47:10.971Z,50.56
2019-05-29T23:49:42.859Z,49.67
2019-05-29T23:52:14.673Z,49.52
2019-05-29T23:54:46.540Z,48.98
2019-05-29T23:57:18.426Z,47.82
